createdAt,value
2018-08-19T00:00:28.452Z,71.77
2018-08-19T00:01:28.607Z,72.50
2018-08-19T00:02:28.511Z,72.50
2018-08-19T00:03:28.572Z,73.18
2018-08-19T00:04:28.571Z,73.47
2018-08-19T00:05:28.607Z,72.89
2018-08-19T00:06:28.627Z,73.33
2018-08-19T00:07:28.661Z,73.33
2018-08-19T00:08:28.683Z,73.53
2018-08-19T00:09:28.721Z,74.10
2018-08-19T00:10:28.745Z,73.91
2018-08-19T00:11:28.777Z,73.72
2018-08-19T00:12:28.806Z,73.53
2018-08-19T00:13:28.832Z,74.40
2018-08-19T00:14:28.873Z,74.58
2018-08-19T00:15:28.887Z,74.68
2018-08-19T00:16:28.913Z,74.49
2018-08-19T00:17:28.946Z,74.49
2018-08-19T00:18:28.988Z,74.58
2018-08-19T00:19:29.003Z,74.68
2018-08-19T00:20:29.040Z,74.49
2018-08-19T00:21:29.116Z,74.49
2018-08-19T00:22:29.088Z,74.49
2018-08-19T00:23:29.731Z,74.10
2018-08-19T00:24:29.144Z,74.30
2018-08-19T00:25:29.182Z,73.62
2018-08-19T00:26:29.208Z,74.01
2018-08-19T00:27:29.236Z,73.72
2018-08-19T00:28:29.265Z,74.30
2018-08-19T00:29:29.296Z,74.78
2018-08-19T00:30:29.326Z,73.91
2018-08-19T00:31:29.358Z,74.10
2018-08-19T00:32:29.393Z,74.20
2018-08-19T00:33:29.410Z,73.53
2018-08-19T00:34:29.448Z,73.33
2018-08-19T00:35:29.471Z,74.10
2018-08-19T00:36:29.497Z,73.33
2018-08-19T00:37:29.530Z,73.72
2018-08-19T00:38:29.575Z,73.62
2018-08-19T00:39:29.592Z,74.01
2018-08-19T00:40:29.611Z,73.62
2018-08-19T00:41:29.646Z,74.49
2018-08-19T00:42:29.673Z,74.58
2018-08-19T00:43:29.716Z,74.30
2018-08-19T00:44:29.727Z,74.10
2018-08-19T00:45:29.788Z,74.97
2018-08-19T00:46:29.794Z,74.49
2018-08-19T00:47:29.818Z,75.16
2018-08-19T00:48:29.858Z,74.78
2018-08-19T00:49:29.883Z,74.49
2018-08-19T00:50:29.904Z,74.78
2018-08-19T00:51:29.934Z,74.82
2018-08-19T00:52:29.966Z,74.05
2018-08-19T00:53:29.999Z,73.60
2018-08-19T00:54:30.020Z,73.37
2018-08-19T00:55:30.050Z,74.33
2018-08-19T00:56:30.078Z,75.01
2018-08-19T00:57:30.109Z,75.36
2018-08-19T00:58:30.152Z,74.40
2018-08-19T00:59:30.171Z,74.78
2018-08-19T01:00:30.201Z,75.07
2018-08-19T01:01:30.224Z,75.26
2018-08-19T01:02:30.257Z,75.03
2018-08-19T01:03:30.296Z,76.28
2018-08-19T01:04:30.315Z,76.28
2018-08-19T01:05:30.349Z,76.76
2018-08-19T01:06:30.367Z,76.67
2018-08-19T01:07:30.399Z,77.06
2018-08-19T01:08:30.428Z,76.96
2018-08-19T01:09:30.455Z,77.15
2018-08-19T01:10:30.486Z,77.15
2018-08-19T01:11:30.512Z,77.25
2018-08-19T01:12:30.548Z,77.06
2018-08-19T01:13:30.568Z,77.25
2018-08-19T01:14:30.604Z,78.02
2018-08-19T01:15:30.632Z,77.92
2018-08-19T01:16:30.666Z,77.83
2018-08-19T01:17:30.688Z,76.76
2018-08-19T01:18:30.717Z,76.57
2018-08-19T01:19:30.745Z,76.86
2018-08-19T01:20:30.782Z,76.57
2018-08-19T01:21:30.804Z,76.48
2018-08-19T01:22:30.830Z,75.61
2018-08-19T01:23:31.750Z,76.57
2018-08-19T01:24:30.888Z,76.67
2018-08-19T01:25:30.926Z,76.48
2018-08-19T01:26:30.949Z,76.28
2018-08-19T01:27:30.974Z,76.86
2018-08-19T01:28:31.012Z,76.92
2018-08-19T01:29:31.038Z,77.59
2018-08-19T01:30:31.070Z,77.11
2018-08-19T01:31:31.092Z,77.25
2018-08-19T01:32:31.142Z,76.96
2018-08-19T01:33:31.160Z,77.25
2018-08-19T01:34:31.190Z,78.02
2018-08-19T01:35:31.234Z,77.06
2018-08-19T01:36:31.239Z,77.06
2018-08-19T01:37:31.267Z,76.92
2018-08-19T01:38:31.298Z,76.96
2018-08-19T01:39:31.325Z,77.06
2018-08-19T01:40:31.357Z,76.82
2018-08-19T01:41:31.381Z,76.82
2018-08-19T01:42:31.416Z,77.98
2018-08-19T01:43:31.440Z,77.31
2018-08-19T01:44:31.467Z,77.40
2018-08-19T01:45:31.503Z,77.11
2018-08-19T01:46:31.533Z,77.40
2018-08-19T01:47:31.585Z,78.17
2018-08-19T01:48:31.585Z,77.88
2018-08-19T01:49:31.622Z,78.08
2018-08-19T01:50:31.638Z,77.88
2018-08-19T01:51:31.678Z,78.17
2018-08-19T01:52:31.702Z,77.50
2018-08-19T01:53:31.726Z,77.73
2018-08-19T01:54:31.764Z,77.69
2018-08-19T01:55:31.788Z,76.92
2018-08-19T01:56:31.822Z,75.51
2018-08-19T01:57:31.854Z,73.53
2018-08-19T01:58:31.875Z,73.14
2018-08-19T01:59:31.908Z,74.58
2018-08-19T02:00:31.939Z,74.68
2018-08-19T02:01:31.965Z,74.58
2018-08-19T02:02:31.984Z,73.91
2018-08-19T02:03:32.016Z,73.05
2018-08-19T02:04:32.045Z,73.33
2018-08-19T02:05:32.077Z,74.49
2018-08-19T02:06:32.109Z,74.10
2018-08-19T02:07:32.131Z,74.30
2018-08-19T02:08:32.165Z,73.72
2018-08-19T02:09:32.187Z,74.40
2018-08-19T02:10:32.217Z,74.58
2018-08-19T02:11:32.246Z,74.97
2018-08-19T02:12:32.279Z,74.55
2018-08-19T02:13:32.308Z,74.78
2018-08-19T02:14:32.346Z,73.88
2018-08-19T02:15:32.375Z,74.93
2018-08-19T02:16:32.396Z,75.13
2018-08-19T02:17:32.421Z,75.03
2018-08-19T02:18:32.446Z,75.51
2018-08-19T02:19:32.484Z,75.03
2018-08-19T02:20:32.530Z,74.36
2018-08-19T02:21:32.534Z,75.42
2018-08-19T02:22:32.563Z,74.93
2018-08-19T02:23:32.638Z,75.42
2018-08-19T02:24:32.623Z,75.61
2018-08-19T02:25:32.670Z,75.51
2018-08-19T02:26:32.678Z,74.45
2018-08-19T02:27:32.717Z,74.45
2018-08-19T02:28:32.736Z,74.07
2018-08-19T02:29:32.768Z,75.13
2018-08-19T02:30:32.806Z,74.93
2018-08-19T02:31:32.825Z,74.74
2018-08-19T02:32:32.858Z,75.23
2018-08-19T02:33:32.882Z,75.32
2018-08-19T02:34:32.935Z,75.23
2018-08-19T02:35:32.944Z,74.74
2018-08-19T02:36:32.974Z,75.13
2018-08-19T02:37:32.996Z,75.67
2018-08-19T02:38:33.032Z,75.76
2018-08-19T02:39:33.058Z,76.34
2018-08-19T02:40:33.083Z,75.48
2018-08-19T02:41:33.108Z,75.51
2018-08-19T02:42:33.140Z,76.25
2018-08-19T02:43:33.176Z,75.76
2018-08-19T02:44:33.201Z,76.73
2018-08-19T02:45:33.231Z,76.44
2018-08-19T02:46:33.262Z,76.82
2018-08-19T02:47:33.284Z,76.82
2018-08-19T02:48:33.316Z,76.73
2018-08-19T02:49:33.345Z,77.11
2018-08-19T02:50:33.376Z,77.01
2018-08-19T02:51:33.400Z,77.88
2018-08-19T02:52:33.426Z,77.40
2018-08-19T02:53:33.461Z,77.98
2018-08-19T02:54:33.486Z,77.88
2018-08-19T02:55:33.515Z,76.92
2018-08-19T02:56:33.557Z,77.98
2018-08-19T02:57:33.588Z,77.01
2018-08-19T02:58:33.611Z,77.21
2018-08-19T02:59:33.634Z,77.40
2018-08-19T03:00:33.667Z,76.57
2018-08-19T03:01:33.688Z,76.38
2018-08-19T03:02:33.717Z,76.48
2018-08-19T03:03:33.747Z,77.01
2018-08-19T03:04:33.772Z,76.82
2018-08-19T03:05:33.806Z,77.44
2018-08-19T03:06:33.832Z,77.59
2018-08-19T03:07:33.867Z,77.31
2018-08-19T03:08:33.884Z,77.88
2018-08-19T03:09:33.916Z,77.31
2018-08-19T03:10:33.941Z,76.57
2018-08-19T03:11:33.976Z,76.86
2018-08-19T03:12:34.006Z,76.28
2018-08-19T03:13:34.032Z,75.51
2018-08-19T03:14:34.079Z,74.58
2018-08-19T03:15:34.088Z,74.40
2018-08-19T03:16:34.126Z,74.78
2018-08-19T03:17:34.153Z,74.30
2018-08-19T03:18:34.174Z,73.72
2018-08-19T03:19:34.202Z,73.43
2018-08-19T03:20:34.230Z,73.91
2018-08-19T03:21:34.267Z,73.72
2018-08-19T03:22:34.290Z,74.97
2018-08-19T03:23:34.316Z,74.55
2018-08-19T03:24:34.349Z,75.51
2018-08-19T03:25:34.413Z,76.28
2018-08-19T03:26:34.407Z,76.09
2018-08-19T03:27:34.433Z,76.48
2018-08-19T03:28:34.466Z,77.06
2018-08-19T03:29:34.498Z,76.86
2018-08-19T03:30:34.530Z,76.67
2018-08-19T03:31:34.549Z,76.18
2018-08-19T03:32:34.576Z,76.57
2018-08-19T03:33:34.609Z,77.34
2018-08-19T03:34:34.633Z,77.98
2018-08-19T03:35:34.668Z,77.50
2018-08-19T03:36:34.773Z,77.21
2018-08-19T03:37:34.721Z,77.78
2018-08-19T03:38:34.755Z,78.36
2018-08-19T03:39:34.779Z,78.33
2018-08-19T03:40:34.809Z,77.31
2018-08-19T03:41:34.836Z,76.44
2018-08-19T03:42:34.866Z,76.48
2018-08-19T03:43:34.893Z,76.28
2018-08-19T03:44:34.921Z,76.86
2018-08-19T03:45:34.972Z,77.01
2018-08-19T03:46:34.977Z,77.31
2018-08-19T03:47:35.053Z,77.98
2018-08-19T03:48:35.041Z,78.03
2018-08-19T03:49:35.064Z,78.13
2018-08-19T03:50:35.092Z,78.52
2018-08-19T03:51:35.120Z,78.42
2018-08-19T03:52:35.146Z,78.42
2018-08-19T03:53:35.180Z,79.00
2018-08-19T03:54:35.202Z,78.61
2018-08-19T03:55:35.233Z,79.48
2018-08-19T03:56:35.276Z,79.38
2018-08-19T03:57:35.291Z,78.81
2018-08-19T03:58:35.345Z,79.48
2018-08-19T03:59:35.349Z,79.48
2018-08-19T04:00:35.386Z,79.28
2018-08-19T04:01:35.403Z,78.33
2018-08-19T04:02:35.445Z,79.00
2018-08-19T04:03:35.462Z,78.42
2018-08-19T04:04:35.493Z,79.03
2018-08-19T04:05:35.521Z,78.36
2018-08-19T04:06:35.546Z,78.13
2018-08-19T04:07:35.582Z,78.90
2018-08-19T04:08:35.622Z,78.94
2018-08-19T04:09:35.637Z,78.46
2018-08-19T04:10:35.662Z,78.71
2018-08-19T04:11:35.689Z,79.28
2018-08-19T04:12:35.721Z,78.94
2018-08-19T04:13:35.745Z,78.61
2018-08-19T04:14:35.783Z,79.28
2018-08-19T04:15:35.818Z,78.90
2018-08-19T04:16:35.831Z,78.56
2018-08-19T04:17:35.864Z,78.94
2018-08-19T04:18:35.902Z,78.17
2018-08-19T04:19:35.923Z,78.36
2018-08-19T04:20:35.949Z,78.75
2018-08-19T04:21:35.975Z,78.85
2018-08-19T04:22:36.004Z,78.61
2018-08-19T04:23:36.131Z,78.61
2018-08-19T04:24:36.067Z,78.71
2018-08-19T04:25:36.088Z,79.00
2018-08-19T04:26:36.138Z,79.23
2018-08-19T04:27:36.147Z,79.13
2018-08-19T04:28:36.181Z,79.23
2018-08-19T04:29:36.208Z,78.56
2018-08-19T04:30:36.235Z,77.98
2018-08-19T04:31:36.262Z,77.40
2018-08-19T04:32:36.291Z,77.88
2018-08-19T04:33:36.322Z,78.85
2018-08-19T04:34:36.349Z,78.85
2018-08-19T04:35:36.372Z,78.56
2018-08-19T04:36:36.454Z,78.08
2018-08-19T04:37:36.443Z,77.06
2018-08-19T04:38:36.522Z,78.40
2018-08-19T04:39:36.492Z,78.40
2018-08-19T04:40:36.522Z,78.40
2018-08-19T04:41:36.554Z,78.50
2018-08-19T04:42:36.591Z,78.40
2018-08-19T04:43:36.610Z,78.17
2018-08-19T04:44:36.632Z,78.59
2018-08-19T04:45:36.659Z,78.59
2018-08-19T04:46:36.691Z,78.40
2018-08-19T04:47:36.795Z,78.36
2018-08-19T04:48:36.754Z,78.59
2018-08-19T04:49:36.805Z,78.59
2018-08-19T04:50:36.812Z,78.08
2018-08-19T04:51:36.841Z,78.59
2018-08-19T04:52:36.860Z,77.92
2018-08-19T04:53:36.890Z,77.92
2018-08-19T04:54:36.923Z,77.98
2018-08-19T04:55:36.947Z,77.88
2018-08-19T04:56:36.976Z,77.98
2018-08-19T04:57:37.008Z,77.88
2018-08-19T04:58:37.097Z,77.21
2018-08-19T04:59:37.063Z,77.88
2018-08-19T05:00:37.092Z,76.34
2018-08-19T05:01:37.127Z,76.34
2018-08-19T05:02:37.189Z,75.19
2018-08-19T05:03:37.183Z,73.46
2018-08-19T05:04:37.218Z,73.36
2018-08-19T05:05:37.239Z,73.16
2018-08-19T05:06:37.268Z,71.81
2018-08-19T05:07:37.289Z,71.81
2018-08-19T05:08:37.319Z,71.81
2018-08-19T05:09:37.366Z,72.30
2018-08-19T05:10:37.382Z,72.20
2018-08-19T05:11:37.404Z,71.24
2018-08-19T05:12:37.441Z,69.51
2018-08-19T05:13:37.464Z,69.79
2018-08-19T05:14:37.499Z,69.73
2018-08-19T05:15:37.566Z,69.64
2018-08-19T05:16:37.547Z,69.60
2018-08-19T05:17:37.586Z,69.83
2018-08-19T05:18:37.609Z,70.18
2018-08-19T05:19:37.641Z,69.45
2018-08-19T05:20:37.663Z,67.71
2018-08-19T05:21:37.693Z,68.93
2018-08-19T05:22:37.807Z,67.13
2018-08-19T05:23:37.757Z,67.42
2018-08-19T05:24:37.779Z,67.13
2018-08-19T05:25:37.814Z,66.85
2018-08-19T05:26:37.847Z,67.42
2018-08-19T05:27:37.865Z,67.71
2018-08-19T05:28:37.906Z,67.42
2018-08-19T05:29:37.920Z,66.75
2018-08-19T05:30:37.952Z,65.69
2018-08-19T05:31:37.997Z,65.98
2018-08-19T05:32:38.021Z,65.24
2018-08-19T05:33:38.044Z,62.45
2018-08-19T05:34:38.068Z,62.06
2018-08-19T05:35:38.107Z,61.96
2018-08-19T05:36:38.120Z,62.45
2018-08-19T05:37:38.150Z,63.89
2018-08-19T05:38:38.181Z,62.06
2018-08-19T05:39:38.208Z,61.41
2018-08-19T05:40:38.255Z,60.35
2018-08-19T05:41:38.264Z,60.64
2018-08-19T05:42:38.299Z,60.06
2018-08-19T05:43:38.326Z,62.18
2018-08-19T05:44:38.366Z,63.63
2018-08-19T05:45:38.380Z,63.54
2018-08-19T05:46:38.410Z,64.21
2018-08-19T05:47:38.446Z,65.05
2018-08-19T05:48:38.476Z,65.14
2018-08-19T05:49:38.598Z,64.47
2018-08-19T05:50:38.525Z,64.47
2018-08-19T05:51:38.553Z,65.05
2018-08-19T05:52:38.583Z,66.49
2018-08-19T05:53:38.613Z,66.97
2018-08-19T05:54:38.642Z,62.93
2018-08-19T05:55:38.707Z,61.71
2018-08-19T05:56:38.697Z,63.34
2018-08-19T05:57:38.722Z,62.38
2018-08-19T05:58:38.761Z,63.73
2018-08-19T05:59:38.784Z,63.34
2018-08-19T06:00:38.816Z,64.89
2018-08-19T06:01:38.845Z,65.56
2018-08-19T06:02:38.869Z,64.59
2018-08-19T06:03:38.906Z,63.63
2018-08-19T06:04:38.932Z,62.86
2018-08-19T06:05:38.956Z,61.71
2018-08-19T06:06:38.989Z,62.28
2018-08-19T06:07:39.052Z,63.92
2018-08-19T06:08:39.054Z,62.38
2018-08-19T06:09:39.076Z,62.66
2018-08-19T06:10:39.117Z,62.57
2018-08-19T06:11:39.142Z,62.96
2018-08-19T06:12:39.165Z,62.57
2018-08-19T06:13:39.193Z,61.51
2018-08-19T06:14:39.219Z,62.66
2018-08-19T06:15:39.246Z,61.61
2018-08-19T06:16:39.269Z,62.09
2018-08-19T06:17:39.302Z,62.57
2018-08-19T06:18:39.330Z,62.66
2018-08-19T06:19:39.361Z,62.66
2018-08-19T06:20:39.390Z,62.76
2018-08-19T06:21:39.416Z,63.44
2018-08-19T06:22:39.451Z,60.77
2018-08-19T06:23:39.480Z,60.38
2018-08-19T06:24:39.557Z,61.44
2018-08-19T06:25:39.544Z,61.16
2018-08-19T06:26:39.561Z,59.61
2018-08-19T06:27:39.590Z,62.41
2018-08-19T06:28:39.629Z,62.31
2018-08-19T06:29:39.650Z,61.83
2018-08-19T06:30:39.698Z,60.58
2018-08-19T06:31:39.704Z,61.64
2018-08-19T06:32:39.738Z,62.89
2018-08-19T06:33:39.761Z,62.51
2018-08-19T06:34:39.836Z,61.06
2018-08-19T06:35:39.823Z,60.68
2018-08-19T06:36:39.926Z,61.25
2018-08-19T06:37:39.878Z,60.77
2018-08-19T06:38:39.903Z,61.35
2018-08-19T06:39:39.935Z,62.99
2018-08-19T06:40:39.967Z,62.60
2018-08-19T06:41:40.000Z,62.51
2018-08-19T06:42:40.032Z,63.85
2018-08-19T06:43:40.054Z,63.37
2018-08-19T06:44:40.085Z,62.51
2018-08-19T06:45:40.112Z,62.89
2018-08-19T06:46:40.140Z,63.18
2018-08-19T06:47:40.179Z,62.31
2018-08-19T06:48:40.196Z,62.99
2018-08-19T06:49:40.229Z,63.37
2018-08-19T06:50:40.250Z,60.68
2018-08-19T06:51:40.286Z,60.96
2018-08-19T06:52:40.310Z,60.03
2018-08-19T06:53:40.347Z,60.31
2018-08-19T06:54:40.387Z,62.25
2018-08-19T06:55:40.410Z,61.38
2018-08-19T06:56:40.424Z,61.09
2018-08-19T06:57:40.462Z,60.99
2018-08-19T06:58:40.485Z,60.99
2018-08-19T06:59:40.544Z,61.86
2018-08-19T07:00:40.654Z,62.63
2018-08-19T07:01:40.574Z,62.92
2018-08-19T07:02:40.604Z,63.89
2018-08-19T07:03:40.731Z,62.73
2018-08-19T07:04:40.657Z,62.34
2018-08-19T07:05:40.689Z,62.34
2018-08-19T07:06:40.718Z,60.99
2018-08-19T07:07:40.749Z,60.25
2018-08-19T07:08:40.775Z,61.12
2018-08-19T07:09:40.810Z,59.19
2018-08-19T07:10:40.831Z,57.64
2018-08-19T07:11:40.871Z,58.61
2018-08-19T07:12:40.935Z,58.51
2018-08-19T07:13:40.922Z,57.64
2018-08-19T07:14:40.950Z,56.39
2018-08-19T07:15:41.009Z,56.10
2018-08-19T07:16:41.003Z,56.99
2018-08-19T07:17:41.043Z,56.39
2018-08-19T07:18:41.130Z,57.09
2018-08-19T07:19:41.105Z,56.22
2018-08-19T07:20:41.184Z,57.29
2018-08-19T07:21:41.158Z,56.80
2018-08-19T07:22:41.215Z,57.09
2018-08-19T07:23:41.273Z,57.29
2018-08-19T07:24:41.254Z,58.64
2018-08-19T07:25:41.272Z,60.18
2018-08-19T07:26:41.299Z,60.76
2018-08-19T07:27:41.324Z,61.18
2018-08-19T07:28:41.355Z,60.41
2018-08-19T07:29:41.462Z,59.53
2018-08-19T07:30:41.424Z,58.57
2018-08-19T07:31:41.453Z,58.37
2018-08-19T07:32:41.471Z,58.67
2018-08-19T07:33:41.507Z,55.31
2018-08-19T07:34:41.533Z,54.25
2018-08-19T07:35:41.559Z,54.63
2018-08-19T07:36:41.628Z,53.86
2018-08-19T07:37:41.618Z,56.47
2018-08-19T07:38:41.660Z,56.86
2018-08-19T07:39:41.687Z,56.28
2018-08-19T07:40:41.702Z,55.21
2018-08-19T07:41:41.745Z,55.70
2018-08-19T07:42:41.762Z,55.21
2018-08-19T07:43:41.799Z,51.73
2018-08-19T07:44:41.821Z,55.21
2018-08-19T07:45:41.851Z,54.63
2018-08-19T07:46:41.881Z,55.11
2018-08-19T07:47:41.909Z,55.02
2018-08-19T07:48:41.943Z,53.89
2018-08-19T07:49:41.967Z,50.98
2018-08-19T07:50:42.007Z,51.28
2018-08-19T07:51:42.080Z,50.89
2018-08-19T07:52:42.055Z,50.89
2018-08-19T07:53:42.088Z,51.18
2018-08-19T07:54:42.127Z,49.92
2018-08-19T07:55:42.146Z,49.63
2018-08-19T07:56:42.175Z,49.92
2018-08-19T07:57:42.208Z,51.28
2018-08-19T07:58:42.242Z,50.24
2018-08-19T07:59:42.267Z,50.33
2018-08-19T08:00:42.291Z,50.04
2018-08-19T08:01:42.332Z,49.37
2018-08-19T08:02:42.358Z,49.46
2018-08-19T08:03:42.378Z,50.43
2018-08-19T08:04:42.406Z,48.97
2018-08-19T08:05:42.438Z,48.69
2018-08-19T08:06:42.477Z,48.59
2018-08-19T08:07:42.501Z,48.88
2018-08-19T08:08:42.547Z,49.17
2018-08-19T08:09:42.554Z,49.85
2018-08-19T08:10:42.593Z,51.20
2018-08-19T08:11:42.615Z,50.33
2018-08-19T08:12:42.650Z,50.33
2018-08-19T08:13:42.725Z,50.45
2018-08-19T08:14:42.700Z,51.04
2018-08-19T08:15:42.734Z,50.16
2018-08-19T08:16:42.762Z,49.29
2018-08-19T08:17:42.786Z,49.00
2018-08-19T08:18:42.824Z,49.00
2018-08-19T08:19:42.847Z,49.00
2018-08-19T08:20:42.883Z,47.55
2018-08-19T08:21:43.141Z,47.94
2018-08-19T08:22:42.956Z,48.90
2018-08-19T08:23:42.962Z,50.35
2018-08-19T08:24:42.993Z,50.16
2018-08-19T08:25:43.030Z,50.65
2018-08-19T08:26:43.068Z,51.32
2018-08-19T08:27:43.090Z,52.00
2018-08-19T08:28:43.123Z,51.84
2018-08-19T08:29:43.158Z,51.16
2018-08-19T08:30:43.177Z,50.77
2018-08-19T08:31:43.223Z,49.73
2018-08-19T08:32:43.230Z,49.15
2018-08-19T08:33:43.298Z,48.57
2018-08-19T08:34:43.286Z,49.05
2018-08-19T08:35:43.322Z,51.09
2018-08-19T08:36:43.349Z,51.09
2018-08-19T08:37:43.378Z,51.18
2018-08-19T08:38:43.422Z,50.12
2018-08-19T08:39:43.441Z,48.37
2018-08-19T08:40:43.473Z,47.69
2018-08-19T08:41:43.496Z,47.50
2018-08-19T08:42:43.528Z,49.24
2018-08-19T08:43:43.572Z,48.76
2018-08-19T08:44:43.647Z,49.34
2018-08-19T08:45:43.635Z,50.21
2018-08-19T08:46:43.644Z,48.10
2018-08-19T08:47:43.824Z,48.97
2018-08-19T08:48:43.704Z,48.00
2018-08-19T08:49:43.734Z,46.65
2018-08-19T08:50:43.767Z,48.20
2018-08-19T08:51:43.796Z,47.91
2018-08-19T08:52:43.826Z,46.07
2018-08-19T08:53:43.867Z,45.58
2018-08-19T08:54:43.891Z,44.32
2018-08-19T08:55:43.955Z,43.84
2018-08-19T08:56:43.946Z,43.93
2018-08-19T08:57:43.973Z,44.03
2018-08-19T08:58:44.005Z,44.13
2018-08-19T08:59:44.039Z,45.97
2018-08-19T09:00:44.062Z,44.42
2018-08-19T09:01:44.104Z,45.58
2018-08-19T09:02:44.130Z,46.36
2018-08-19T09:03:44.161Z,45.39
2018-08-19T09:04:44.187Z,44.54
2018-08-19T09:05:44.217Z,45.41
2018-08-19T09:06:44.239Z,48.13
2018-08-19T09:07:44.280Z,48.80
2018-08-19T09:08:44.313Z,48.32
2018-08-19T09:09:44.337Z,48.03
2018-08-19T09:10:44.370Z,44.83
2018-08-19T09:11:44.409Z,45.51
2018-08-19T09:12:44.427Z,46.69
2018-08-19T09:13:44.494Z,46.60
2018-08-19T09:14:44.483Z,47.16
2018-08-19T09:15:44.516Z,46.86
2018-08-19T09:16:44.542Z,46.50
2018-08-19T09:17:44.571Z,43.88
2018-08-19T09:18:44.603Z,42.33
2018-08-19T09:19:44.632Z,41.74
2018-08-19T09:20:44.667Z,42.23
2018-08-19T09:21:44.697Z,42.33
2018-08-19T09:22:44.734Z,44.00
2018-08-19T09:23:44.750Z,42.52
2018-08-19T09:24:44.780Z,41.16
2018-08-19T09:25:44.814Z,40.48
2018-08-19T09:26:44.839Z,41.26
2018-08-19T09:27:44.893Z,41.74
2018-08-19T09:28:44.911Z,41.36
2018-08-19T09:29:44.936Z,40.99
2018-08-19T09:30:44.963Z,40.50
2018-08-19T09:31:45.017Z,40.69
2018-08-19T09:32:45.032Z,40.21
2018-08-19T09:33:45.059Z,40.21
2018-08-19T09:34:45.079Z,41.30
2018-08-19T09:35:45.118Z,40.62
2018-08-19T09:36:45.149Z,40.62
2018-08-19T09:37:45.184Z,40.23
2018-08-19T09:38:45.214Z,40.03
2018-08-19T09:39:45.250Z,40.62
2018-08-19T09:40:45.485Z,39.67
2018-08-19T09:41:45.303Z,39.55
2018-08-19T09:42:45.375Z,38.79
2018-08-19T09:43:45.351Z,38.40
2018-08-19T09:44:45.382Z,37.62
2018-08-19T09:45:45.416Z,38.11
2018-08-19T09:46:45.446Z,40.34
2018-08-19T09:47:45.554Z,39.57
2018-08-19T09:48:45.508Z,38.32
2018-08-19T09:49:45.550Z,38.03
2018-08-19T09:50:45.564Z,39.78
2018-08-19T09:51:45.593Z,38.23
2018-08-19T09:52:45.623Z,38.05
2018-08-19T09:53:45.685Z,36.69
2018-08-19T09:54:45.685Z,36.88
2018-08-19T09:55:45.730Z,37.66
2018-08-19T09:56:45.766Z,40.41
2018-08-19T09:57:45.791Z,41.26
2018-08-19T09:58:45.815Z,42.53
2018-08-19T09:59:45.841Z,40.50
2018-08-19T10:00:45.889Z,40.01
2018-08-19T10:01:45.934Z,38.67
2018-08-19T10:02:45.934Z,36.24
2018-08-19T10:03:45.959Z,37.71
2018-08-19T10:04:45.992Z,35.67
2018-08-19T10:05:46.023Z,34.81
2018-08-19T10:06:46.065Z,33.93
2018-08-19T10:07:46.091Z,33.85
2018-08-19T10:08:46.114Z,33.26
2018-08-19T10:09:46.142Z,33.38
2018-08-19T10:10:46.177Z,33.97
2018-08-19T10:11:46.213Z,33.20
2018-08-19T10:12:46.263Z,33.80
2018-08-19T10:13:46.363Z,31.48
2018-08-19T10:14:46.300Z,30.69
2018-08-19T10:15:46.351Z,30.22
2018-08-19T10:16:46.358Z,32.29
2018-08-19T10:17:46.462Z,32.20
2018-08-19T10:18:46.421Z,29.77
2018-08-19T10:19:46.451Z,29.90
2018-08-19T10:20:46.482Z,31.45
2018-08-19T10:21:46.518Z,31.65
2018-08-19T10:22:46.547Z,31.55
2018-08-19T10:23:46.573Z,30.19
2018-08-19T10:24:46.616Z,31.09
2018-08-19T10:25:46.655Z,29.62
2018-08-19T10:26:46.668Z,27.97
2018-08-19T10:27:46.705Z,30.01
2018-08-19T10:28:46.738Z,29.72
2018-08-19T10:29:47.437Z,27.09
2018-08-19T10:30:46.788Z,27.40
2018-08-19T10:31:46.853Z,26.26
2018-08-19T10:32:46.855Z,24.82
2018-08-19T10:33:46.888Z,24.22
2018-08-19T10:34:46.923Z,23.37
2018-08-19T10:35:46.967Z,24.66
2018-08-19T10:36:46.982Z,24.67
2018-08-19T10:37:47.010Z,24.34
2018-08-19T10:38:47.052Z,23.14
2018-08-19T10:39:47.101Z,24.81
2018-08-19T10:40:47.124Z,25.71
2018-08-19T10:41:47.160Z,25.82
2018-08-19T10:42:47.180Z,24.27
2018-08-19T10:43:47.213Z,23.79
2018-08-19T10:44:47.245Z,21.50
2018-08-19T10:45:47.277Z,22.75
2018-08-19T10:46:47.310Z,26.42
2018-08-19T10:47:47.335Z,25.04
2018-08-19T10:48:47.364Z,25.26
2018-08-19T10:49:47.520Z,26.12
2018-08-19T10:50:47.436Z,26.12
2018-08-19T10:51:47.520Z,25.34
2018-08-19T10:52:47.497Z,25.72
2018-08-19T10:53:47.526Z,22.49
2018-08-19T10:54:47.568Z,24.28
2018-08-19T10:55:47.601Z,22.99
2018-08-19T10:56:47.632Z,24.67
2018-08-19T10:57:47.662Z,22.58
2018-08-19T10:58:47.687Z,21.61
2018-08-19T10:59:47.774Z,21.70
2018-08-19T11:00:47.757Z,23.08
2018-08-19T11:01:47.797Z,22.61
2018-08-19T11:02:47.844Z,20.94
2018-08-19T11:03:47.857Z,20.73
2018-08-19T11:04:47.896Z,22.11
2018-08-19T11:05:47.934Z,20.76
2018-08-19T11:06:48.050Z,24.51
2018-08-19T11:07:47.988Z,25.78
2018-08-19T11:08:48.017Z,25.55
2018-08-19T11:09:48.064Z,27.04
2018-08-19T11:10:48.097Z,21.74
2018-08-19T11:11:48.123Z,24.32
2018-08-19T11:12:48.153Z,23.94
2018-08-19T11:13:48.191Z,23.73
2018-08-19T11:14:48.229Z,22.89
2018-08-19T11:15:48.260Z,24.18
2018-08-19T11:16:48.297Z,24.38
2018-08-19T11:17:48.323Z,23.11
2018-08-19T11:18:48.363Z,25.35
2018-08-19T11:19:48.397Z,22.96
2018-08-19T11:20:48.434Z,24.65
2018-08-19T11:21:48.462Z,23.48
2018-08-19T11:22:48.502Z,23.77
2018-08-19T11:23:48.539Z,25.32
2018-08-19T11:24:48.584Z,24.12
2018-08-19T11:25:48.619Z,22.96
2018-08-19T11:26:48.644Z,22.89
2018-08-19T11:27:48.683Z,21.53
2018-08-19T11:28:48.715Z,20.35
2018-08-19T11:29:48.750Z,23.21
2018-08-19T11:30:48.790Z,22.82
2018-08-19T11:31:48.819Z,22.75
2018-08-19T11:32:48.855Z,22.00
2018-08-19T11:33:48.958Z,23.19
2018-08-19T11:34:48.929Z,23.78
2018-08-19T11:35:48.965Z,22.07
2018-08-19T11:36:49.064Z,22.94
2018-08-19T11:37:49.062Z,21.84
2018-08-19T11:38:49.092Z,23.02
2018-08-19T11:39:49.122Z,24.19
2018-08-19T11:40:49.154Z,23.70
2018-08-19T11:41:49.198Z,22.14
2018-08-19T11:42:49.234Z,20.18
2018-08-19T11:43:49.270Z,23.18
2018-08-19T11:44:49.324Z,20.29
2018-08-19T11:45:49.352Z,20.61
2018-08-19T11:46:49.411Z,21.89
2018-08-19T11:47:49.425Z,22.92
2018-08-19T11:48:49.506Z,24.82
2018-08-19T11:49:49.503Z,23.13
2018-08-19T11:50:49.536Z,27.04
2018-08-19T11:51:49.566Z,30.05
2018-08-19T11:52:49.611Z,30.40
2018-08-19T11:53:49.636Z,27.75
2018-08-19T11:54:49.717Z,25.59
2018-08-19T11:55:49.711Z,25.59
2018-08-19T11:56:49.742Z,26.07
2018-08-19T11:57:49.786Z,27.23
2018-08-19T11:58:49.832Z,27.12
2018-08-19T11:59:49.862Z,28.09
2018-08-19T12:00:49.890Z,30.04
2018-08-19T12:01:49.921Z,33.43
2018-08-19T12:02:49.949Z,34.11
2018-08-19T12:03:49.985Z,33.31
2018-08-19T12:04:50.018Z,33.70
2018-08-19T12:05:50.056Z,34.97
2018-08-19T12:06:50.078Z,35.84
2018-08-19T12:07:50.119Z,36.13
2018-08-19T12:08:50.145Z,36.34
2018-08-19T12:09:50.187Z,35.94
2018-08-19T12:10:50.244Z,35.45
2018-08-19T12:11:50.276Z,31.16
2018-08-19T12:12:50.278Z,32.62
2018-08-19T12:13:50.313Z,36.31
2018-08-19T12:14:50.351Z,34.73
2018-08-19T12:15:50.384Z,32.99
2018-08-19T12:16:50.433Z,31.45
2018-08-19T12:17:50.452Z,30.66
2018-08-19T12:18:50.473Z,30.66
2018-08-19T12:19:50.509Z,30.47
2018-08-19T12:20:50.537Z,30.86
2018-08-19T12:21:50.582Z,33.79
2018-08-19T12:22:50.602Z,33.11
2018-08-19T12:23:50.650Z,33.48
2018-08-19T12:24:50.673Z,34.84
2018-08-19T12:25:50.705Z,36.47
2018-08-19T12:26:50.755Z,38.69
2018-08-19T12:27:50.884Z,37.13
2018-08-19T12:28:50.801Z,37.25
2018-08-19T12:29:50.826Z,38.49
2018-08-19T12:30:50.903Z,37.04
2018-08-19T12:31:50.890Z,37.81
2018-08-19T12:32:50.933Z,40.16
2018-08-19T12:33:50.958Z,37.62
2018-08-19T12:34:50.995Z,37.62
2018-08-19T12:35:51.037Z,40.35
2018-08-19T12:36:51.062Z,39.65
2018-08-19T12:37:51.089Z,37.62
2018-08-19T12:38:51.123Z,35.57
2018-08-19T12:39:51.153Z,34.79
2018-08-19T12:40:51.187Z,36.06
2018-08-19T12:41:51.247Z,35.30
2018-08-19T12:42:51.245Z,33.54
2018-08-19T12:43:51.286Z,37.15
2018-08-19T12:44:51.412Z,36.27
2018-08-19T12:45:51.350Z,35.88
2018-08-19T12:46:51.378Z,37.33
2018-08-19T12:47:51.404Z,38.59
2018-08-19T12:48:52.043Z,37.31
2018-08-19T12:49:51.467Z,34.40
2018-08-19T12:50:51.608Z,36.74
2018-08-19T12:51:51.543Z,37.50
2018-08-19T12:52:51.597Z,33.92